sensor_id;sensor_type;location;lat;lon;timestamp;P1;durP1;ratioP1;P2;durP2;ratioP2
30466;SDS011;17258;52.560;13.046;2024-01-10T00:00:31;11.13;;;9.77;;
30466;SDS011;17258;52.560;13.046;2024-01-10T00:10:31;11.00;;;9.83;;
30466;SDS011;17258;52.560;13.046;2024-01-10T00:20:32;13.18;;;10.18;;
30466;SDS011;17258;52.560;13.046;2024-01-10T00:30:33;11.87;;;9.90;;
30466;SDS011;17258;52.560;13.046;2024-01-10T00:40:33;13.37;;;11.13;;
30466;SDS011;17258;52.560;13.046;2024-01-10T00:50:35;10.02;;;9.00;;
30466;SDS011;17258;52.560;13.046;2024-01-10T01:00:36;11.23;;;10.00;;
30466;SDS011;17258;52.560;13.046;2024-01-10T01:10:36;11.80;;;10.20;;
30466;SDS011;17258;52.560;13.046;2024-01-10T01:20:37;15.20;;;9.77;;
30466;SDS011;17258;52.560;13.046;2024-01-10T01:30:38;13.32;;;10.65;;
30466;SDS011;17258;52.560;13.046;2024-01-10T01:40:39;12.73;;;9.85;;
30466;SDS011;17258;52.560;13.046;2024-01-10T01:50:39;16.80;;;10.93;;
30466;SDS011;17258;52.560;13.046;2024-01-10T02:00:41;13.02;;;11.63;;
30466;SDS011;17258;52.560;13.046;2024-01-10T02:10:43;15.25;;;10.40;;
30466;SDS011;17258;52.560;13.046;2024-01-10T02:20:44;16.80;;;11.20;;
30466;SDS011;17258;52.560;13.046;2024-01-10T02:30:45;11.82;;;10.57;;
30466;SDS011;17258;52.560;13.046;2024-01-10T02:40:47;12.75;;;10.18;;
30466;SDS011;17258;52.560;13.046;2024-01-10T02:50:47;18.48;;;13.10;;
30466;SDS011;17258;52.560;13.046;2024-01-10T03:00:48;12.53;;;11.37;;
30466;SDS011;17258;52.560;13.046;2024-01-10T03:10:49;14.63;;;13.03;;
30466;SDS011;17258;52.560;13.046;2024-01-10T03:20:49;14.77;;;12.47;;
30466;SDS011;17258;52.560;13.046;2024-01-10T03:30:50;11.80;;;10.70;;
30466;SDS011;17258;52.560;13.046;2024-01-10T03:40:51;14.55;;;13.02;;
30466;SDS011;17258;52.560;13.046;2024-01-10T03:50:52;22.23;;;14.10;;
30466;SDS011;17258;52.560;13.046;2024-01-10T04:00:53;18.63;;;13.88;;
30466;SDS011;17258;52.560;13.046;2024-01-10T04:10:54;20.08;;;14.25;;
30466;SDS011;17258;52.560;13.046;2024-01-10T04:20:55;15.25;;;13.48;;
30466;SDS011;17258;52.560;13.046;2024-01-10T04:30:55;15.17;;;13.10;;
30466;SDS011;17258;52.560;13.046;2024-01-10T04:40:59;17.88;;;14.60;;
30466;SDS011;17258;52.560;13.046;2024-01-10T04:50:59;37.10;;;26.17;;
30466;SDS011;17258;52.560;13.046;2024-01-10T05:01:00;20.67;;;16.27;;
30466;SDS011;17258;52.560;13.046;2024-01-10T05:11:01;16.63;;;14.93;;
30466;SDS011;17258;52.560;13.046;2024-01-10T05:21:01;16.30;;;14.63;;
30466;SDS011;17258;52.560;13.046;2024-01-10T05:31:04;20.83;;;12.98;;
30466;SDS011;17258;52.560;13.046;2024-01-10T05:41:05;17.48;;;15.10;;
30466;SDS011;17258;52.560;13.046;2024-01-10T05:51:06;20.08;;;14.52;;
30466;SDS011;17258;52.560;13.046;2024-01-10T06:01:06;22.03;;;15.27;;
30466;SDS011;17258;52.560;13.046;2024-01-10T06:11:10;18.42;;;14.55;;
30466;SDS011;17258;52.560;13.046;2024-01-10T06:21:11;18.13;;;13.77;;
30466;SDS011;17258;52.560;13.046;2024-01-10T06:31:11;21.65;;;15.95;;
30466;SDS011;17258;52.560;13.046;2024-01-10T06:41:12;16.67;;;14.53;;
30466;SDS011;17258;52.560;13.046;2024-01-10T06:51:15;25.55;;;17.65;;
30466;SDS011;17258;52.560;13.046;2024-01-10T07:01:16;25.73;;;15.77;;
30466;SDS011;17258;52.560;13.046;2024-01-10T07:11:17;18.75;;;15.50;;
30466;SDS011;17258;52.560;13.046;2024-01-10T07:21:19;29.38;;;16.35;;
30466;SDS011;17258;52.560;13.046;2024-01-10T07:31:21;24.83;;;15.80;;
30466;SDS011;17258;52.560;13.046;2024-01-10T07:41:23;15.20;;;13.57;;
30466;SDS011;17258;52.560;13.046;2024-01-10T07:51:24;24.50;;;13.97;;
30466;SDS011;17258;52.560;13.046;2024-01-10T08:01:24;19.58;;;15.77;;
30466;SDS011;17258;52.560;13.046;2024-01-10T08:11:26;20.73;;;14.77;;
30466;SDS011;17258;52.560;13.046;2024-01-10T08:21:26;24.85;;;17.13;;
30466;SDS011;17258;52.560;13.046;2024-01-10T08:31:27;23.60;;;18.23;;
30466;SDS011;17258;52.560;13.046;2024-01-10T08:41:29;24.50;;;18.45;;
30466;SDS011;17258;52.560;13.046;2024-01-10T08:51:30;23.92;;;17.95;;
30466;SDS011;17258;52.560;13.046;2024-01-10T09:01:31;26.60;;;18.70;;
30466;SDS011;17258;52.560;13.046;2024-01-10T09:11:33;26.33;;;17.23;;
30466;SDS011;17258;52.560;13.046;2024-01-10T09:21:34;25.90;;;18.40;;
30466;SDS011;17258;52.560;13.046;2024-01-10T09:31:35;30.25;;;19.98;;
30466;SDS011;17258;52.560;13.046;2024-01-10T09:41:36;21.25;;;18.58;;
30466;SDS011;17258;52.560;13.046;2024-01-10T09:51:50;28.67;;;19.83;;
30466;SDS011;17258;52.560;13.046;2024-01-10T10:01:56;23.20;;;20.77;;
30466;SDS011;17258;52.560;13.046;2024-01-10T10:12:00;25.88;;;20.02;;
30466;SDS011;17258;52.560;13.046;2024-01-10T10:22:07;27.60;;;22.33;;
30466;SDS011;17258;52.560;13.046;2024-01-10T10:32:09;35.70;;;23.27;;
30466;SDS011;17258;52.560;13.046;2024-01-10T10:42:09;30.93;;;20.53;;
30466;SDS011;17258;52.560;13.046;2024-01-10T10:52:11;34.10;;;22.83;;
30466;SDS011;17258;52.560;13.046;2024-01-10T11:02:12;28.55;;;21.70;;
30466;SDS011;17258;52.560;13.046;2024-01-10T11:12:27;30.02;;;23.60;;
30466;SDS011;17258;52.560;13.046;2024-01-10T11:22:48;30.95;;;21.90;;
30466;SDS011;17258;52.560;13.046;2024-01-10T11:33:20;38.42;;;23.67;;
30466;SDS011;17258;52.560;13.046;2024-01-10T11:43:26;29.73;;;20.60;;
30466;SDS011;17258;52.560;13.046;2024-01-10T12:04:00;28.77;;;20.50;;
30466;SDS011;17258;52.560;13.046;2024-01-10T12:14:02;21.40;;;18.85;;
30466;SDS011;17258;52.560;13.046;2024-01-10T12:24:03;18.90;;;15.77;;
30466;SDS011;17258;52.560;13.046;2024-01-10T12:34:08;24.77;;;17.33;;
30466;SDS011;17258;52.560;13.046;2024-01-10T12:44:09;19.05;;;16.98;;
30466;SDS011;17258;52.560;13.046;2024-01-10T12:54:10;22.05;;;15.55;;
30466;SDS011;17258;52.560;13.046;2024-01-10T13:04:11;24.05;;;16.30;;
30466;SDS011;17258;52.560;13.046;2024-01-10T13:14:12;23.20;;;14.75;;
30466;SDS011;17258;52.560;13.046;2024-01-10T13:24:13;18.57;;;14.30;;
30466;SDS011;17258;52.560;13.046;2024-01-10T13:34:13;17.02;;;15.23;;
30466;SDS011;17258;52.560;13.046;2024-01-10T13:44:14;24.87;;;14.33;;
30466;SDS011;17258;52.560;13.046;2024-01-10T13:54:14;15.37;;;13.30;;
30466;SDS011;17258;52.560;13.046;2024-01-10T14:04:15;18.55;;;12.98;;
30466;SDS011;17258;52.560;13.046;2024-01-10T14:14:16;15.20;;;12.70;;
30466;SDS011;17258;52.560;13.046;2024-01-10T14:24:18;14.88;;;12.35;;
30466;SDS011;17258;52.560;13.046;2024-01-10T14:34:18;17.17;;;11.83;;
30466;SDS011;17258;52.560;13.046;2024-01-10T14:44:20;14.15;;;11.05;;
30466;SDS011;17258;52.560;13.046;2024-01-10T14:54:20;25.17;;;14.63;;
30466;SDS011;17258;52.560;13.046;2024-01-10T15:04:21;16.20;;;13.68;;
30466;SDS011;17258;52.560;13.046;2024-01-10T15:14:22;16.02;;;13.85;;
30466;SDS011;17258;52.560;13.046;2024-01-10T15:24:23;23.83;;;15.53;;
30466;SDS011;17258;52.560;13.046;2024-01-10T15:34:23;18.08;;;14.65;;
30466;SDS011;17258;52.560;13.046;2024-01-10T15:44:24;21.38;;;15.77;;
30466;SDS011;17258;52.560;13.046;2024-01-10T15:54:25;22.17;;;19.73;;
30466;SDS011;17258;52.560;13.046;2024-01-10T16:04:26;27.27;;;18.02;;
30466;SDS011;17258;52.560;13.046;2024-01-10T16:14:26;18.90;;;16.90;;
30466;SDS011;17258;52.560;13.046;2024-01-10T16:24:27;18.53;;;15.30;;
30466;SDS011;17258;52.560;13.046;2024-01-10T16:34:27;20.77;;;16.20;;
30466;SDS011;17258;52.560;13.046;2024-01-10T16:44:28;16.80;;;14.53;;
30466;SDS011;17258;52.560;13.046;2024-01-10T16:54:29;19.10;;;13.93;;
30466;SDS011;17258;52.560;13.046;2024-01-10T17:04:30;13.98;;;12.60;;
30466;SDS011;17258;52.560;13.046;2024-01-10T17:14:30;20.25;;;14.68;;
30466;SDS011;17258;52.560;13.046;2024-01-10T17:24:31;15.60;;;12.60;;
30466;SDS011;17258;52.560;13.046;2024-01-10T17:34:32;26.52;;;17.25;;
30466;SDS011;17258;52.560;13.046;2024-01-10T17:44:33;21.63;;;16.58;;
30466;SDS011;17258;52.560;13.046;2024-01-10T17:54:37;24.77;;;15.70;;
30466;SDS011;17258;52.560;13.046;2024-01-10T18:04:38;14.30;;;12.85;;
30466;SDS011;17258;52.560;13.046;2024-01-10T18:14:41;18.08;;;12.70;;
30466;SDS011;17258;52.560;13.046;2024-01-10T18:24:41;17.90;;;14.52;;
30466;SDS011;17258;52.560;13.046;2024-01-10T18:34:42;23.83;;;13.30;;
30466;SDS011;17258;52.560;13.046;2024-01-10T18:44:43;20.02;;;15.52;;
30466;SDS011;17258;52.560;13.046;2024-01-10T18:54:43;21.37;;;15.87;;
30466;SDS011;17258;52.560;13.046;2024-01-10T19:04:44;26.33;;;16.50;;
30466;SDS011;17258;52.560;13.046;2024-01-10T19:14:45;39.67;;;29.63;;
30466;SDS011;17258;52.560;13.046;2024-01-10T19:24:46;24.17;;;18.35;;
30466;SDS011;17258;52.560;13.046;2024-01-10T19:34:47;25.08;;;18.25;;
30466;SDS011;17258;52.560;13.046;2024-01-10T19:44:47;25.40;;;15.65;;
30466;SDS011;17258;52.560;13.046;2024-01-10T19:54:50;19.63;;;15.98;;
30466;SDS011;17258;52.560;13.046;2024-01-10T20:04:51;29.40;;;16.13;;
30466;SDS011;17258;52.560;13.046;2024-01-10T20:14:52;20.10;;;15.50;;
30466;SDS011;17258;52.560;13.046;2024-01-10T20:24:55;24.00;;;16.05;;
30466;SDS011;17258;52.560;13.046;2024-01-10T20:34:55;21.87;;;16.97;;
30466;SDS011;17258;52.560;13.046;2024-01-10T20:44:56;17.47;;;12.83;;
30466;SDS011;17258;52.560;13.046;2024-01-10T20:54:57;26.00;;;14.13;;
30466;SDS011;17258;52.560;13.046;2024-01-10T21:04:59;21.80;;;15.48;;
30466;SDS011;17258;52.560;13.046;2024-01-10T21:15:00;20.50;;;14.98;;
30466;SDS011;17258;52.560;13.046;2024-01-10T21:25:00;17.90;;;15.23;;
30466;SDS011;17258;52.560;13.046;2024-01-10T21:35:03;20.98;;;15.05;;
30466;SDS011;17258;52.560;13.046;2024-01-10T21:45:05;30.13;;;15.55;;
30466;SDS011;17258;52.560;13.046;2024-01-10T21:55:06;17.88;;;13.80;;
30466;SDS011;17258;52.560;13.046;2024-01-10T22:05:08;22.73;;;15.90;;
30466;SDS011;17258;52.560;13.046;2024-01-10T22:15:09;17.20;;;13.52;;
30466;SDS011;17258;52.560;13.046;2024-01-10T22:25:10;22.77;;;16.95;;
30466;SDS011;17258;52.560;13.046;2024-01-10T22:35:10;26.93;;;15.57;;
30466;SDS011;17258;52.560;13.046;2024-01-10T22:45:11;19.97;;;16.00;;
30466;SDS011;17258;52.560;13.046;2024-01-10T22:55:11;23.65;;;16.30;;
30466;SDS011;17258;52.560;13.046;2024-01-10T23:05:12;15.13;;;13.63;;
30466;SDS011;17258;52.560;13.046;2024-01-10T23:15:13;13.80;;;11.93;;
30466;SDS011;17258;52.560;13.046;2024-01-10T23:25:14;15.10;;;12.95;;
30466;SDS011;17258;52.560;13.046;2024-01-10T23:35:14;21.52;;;12.43;;
30466;SDS011;17258;52.560;13.046;2024-01-10T23:45:15;14.07;;;11.30;;
30466;SDS011;17258;52.560;13.046;2024-01-10T23:55:17;15.07;;;11.57;;
